ADDS METAR Data INFO
IDs: Format: Raw Decoded Include TAF

Data at: 1605 UTC 12 Dec 2017

K5A6 121555Z AUTO 35009G17KT 10SM CLR 10/00 A3019 RMK AO2 T00970000
K5A6 121535Z AUTO 34009G18KT 10SM CLR 10/00 A3019 RMK AO2 T00950000
K5A6 121515Z AUTO 33010G18KT 300V360 10SM CLR 09/00 A3018 RMK AO2 T00900000
K5A6 121500Z AUTO 34010G17KT 300V020 10SM CLR 09/00 A3018 RMK AO2 T00870001
K5A6 121435Z AUTO 34007KT 310V020 10SM CLR 08/00 A3017 RMK AO2 T00820001
K5A6 121410Z AUTO 33007KT 10SM CLR 08/00 A3016 RMK AO2 T00750000
K5A6 121355Z AUTO 32004KT 10SM CLR 07/00 A3016 RMK AO2 T00700000
K5A6 121335Z AUTO 32004KT 10SM CLR 07/00 A3015 RMK AO2 T00651002
K5A6 121315Z AUTO 32006KT 10SM CLR 06/00 A3014 RMK AO2 T00611005
K5A6 121255Z AUTO 30003KT 10SM CLR 07/00 A3014 RMK AO2 T00651005
K5A6 121235Z AUTO 32004KT 10SM CLR 07/00 A3013 RMK AO2 T00701005
K5A6 121215Z AUTO 32003KT 10SM CLR 07/00 A3012 RMK AO2 T00711005
K5A6 121155Z AUTO 32006KT 10SM CLR 08/M01 A3010 RMK AO2 T00761006 10126 20072
K5A6 121135Z AUTO 33004KT 10SM CLR 08/M01 A3008 RMK AO2 T00781008
K5A6 121115Z AUTO 32006KT 10SM CLR 08/M01 A3007 RMK AO2 T00811010
K5A6 121055Z AUTO 33005KT 10SM CLR 09/M01 A3007 RMK AO2 T00851010
K5A6 121035Z AUTO 33006KT 10SM CLR 09/M01 A3006 RMK AO2 T00861015
K5A6 121015Z AUTO 34006KT 10SM CLR 09/M02 A3005 RMK AO2 T00861021
K5A6 120955Z AUTO 34007KT 10SM CLR 09/M02 A3005 RMK AO2 T00901022
K5A6 120935Z AUTO 34007KT 10SM CLR 09/M02 A3004 RMK AO2 T00871022
K5A6 120915Z AUTO 33006KT 10SM CLR 09/M01 A3003 RMK AO2 T00861015
K5A6 120850Z AUTO 32003KT 10SM CLR 08/00 A3003 RMK AO2 T00841001
K5A6 120835Z AUTO 32003KT 10SM CLR 07/00 A3002 RMK AO2 T00720003
K5A6 120815Z AUTO 00000KT 10SM CLR 08/01 A3001 RMK AO2 T00760005
K5A6 120755Z AUTO 00000KT 10SM CLR 09/00 A3000 RMK AO2 T00900002
K5A6 120735Z AUTO 00000KT 10SM CLR 10/00 A3000 RMK AO2 T01010000
K5A6 120715Z AUTO 34004KT 10SM CLR 10/00 A3000 RMK AO2 T01020003
K5A6 120655Z AUTO 33003KT 10SM CLR 11/01 A3000 RMK AO2 T01050006
K5A6 120635Z AUTO 33003KT 10SM CLR 11/01 A3000 RMK AO2 T01070010
K5A6 120615Z AUTO 32004KT 10SM CLR 12/02 A3000 RMK AO2 T01160015
K5A6 120555Z AUTO 31006G14KT 10SM CLR 13/02 A2999 RMK AO2 T01270017 10127 20021 401811029
K5A6 120535Z AUTO 28007KT 240V300 10SM CLR 12/02 A2998 RMK AO2 T01240022
K5A6 120515Z AUTO 00000KT 10SM CLR 04/02 A2996 RMK AO2 T00370017
K5A6 120450Z AUTO 00000KT 10SM CLR 02/01 A2996 RMK AO2 T00220007
K5A6 120440Z AUTO 00000KT 10SM CLR 03/01 A2996 RMK AO2 T00290007
K5A6 120415Z AUTO 00000KT 10SM CLR 03/01 A2997 RMK AO2 T00320008
K5A6 120355Z AUTO 00000KT 10SM CLR 04/01 A2998 RMK AO2 T00360010
K5A6 120335Z AUTO 00000KT 10SM CLR 04/01 A2998 RMK AO2 T00400010
K5A6 120315Z AUTO 00000KT 10SM CLR 04/01 A2998 RMK AO2 T00400007
K5A6 120255Z AUTO 00000KT 10SM CLR 04/01 A2999 RMK AO2 T00430005
K5A6 120235Z AUTO 00000KT 10SM CLR 05/01 A2999 RMK AO2 T00520006
K5A6 120215Z AUTO 20003KT 10SM CLR 05/01 A2999 RMK AO2 T00530006
K5A6 120155Z AUTO 00000KT 10SM CLR 04/01 A3000 RMK AO2 T00390011
K5A6 120140Z AUTO 00000KT 10SM CLR 05/01 A3000 RMK AO2 T00500008
K5A6 120110Z AUTO 00000KT 10SM CLR 05/01 A3000 RMK AO2 T00530012
K5A6 120055Z AUTO 00000KT 10SM CLR 05/01 A3001 RMK AO2 T00470014
K5A6 120035Z AUTO 00000KT 10SM CLR 06/01 A3001 RMK AO2 T00620010
K5A6 120015Z AUTO 20003KT 10SM CLR 07/01 A3000 RMK AO2 T00700013
K5A6 112335Z AUTO 00000KT 10SM CLR 09/01 A3001 RMK AO2 T00860011
K5A6 112315Z AUTO 00000KT 7SM CLR 11/01 A3001 RMK AO2 T01110009
K5A6 112255Z AUTO 22003KT 10SM CLR 14/00 A3001 RMK AO2 T01390002
K5A6 112235Z AUTO 23004KT 10SM CLR 15/01 A3002 RMK AO2 T01500006
K5A6 112215Z AUTO 21003KT 10SM CLR 17/00 A3002 RMK AO2 T01660004
K5A6 112155Z AUTO 21004KT 10SM CLR 17/00 A3002 RMK AO2 T01731005
K5A6 112135Z AUTO 22006KT 10SM CLR 18/M01 A3003 RMK AO2 T01771008
K5A6 112110Z AUTO 25006KT 10SM CLR 18/M01 A3004 RMK AO2 T01801010
K5A6 112055Z AUTO 24006KT 10SM CLR 18/M01 A3004 RMK AO2 T01801011
K5A6 112035Z AUTO 24006KT 10SM CLR 18/M01 A3005 RMK AO2 T01801010
K5A6 112015Z AUTO 24008KT 10SM CLR 18/M01 A3006 RMK AO2 T01801014
K5A6 111955Z AUTO 23008KT 10SM CLR 18/M02 A3007 RMK AO2 T01801016
K5A6 111935Z AUTO 25008KT 10SM CLR 18/M02 A3009 RMK AO2 T01781019
K5A6 111915Z AUTO 25006G15KT 10SM CLR 18/M02 A3010 RMK AO2 T01771017
K5A6 111855Z AUTO 26006KT 10SM CLR 18/M01 A3011 RMK AO2 T01751009
K5A6 111835Z AUTO 24005KT 10SM CLR 17/M01 A3011 RMK AO2 T01691011
K5A6 111815Z AUTO 23008KT 10SM CLR 17/00 A3012 RMK AO2 T01701005
K5A6 111750Z AUTO 21006KT 10SM CLR 16/00 A3013 RMK AO2 T01611001 10161 21029
K5A6 111735Z AUTO 21006KT 10SM CLR 16/00 A3014 RMK AO2 T01561003
K5A6 111715Z AUTO 00000KT 10SM CLR 14/02 A3016 RMK AO2 T01420018
K5A6 111655Z AUTO 18004KT 10SM CLR 13/02 A3017 RMK AO2 T01320022
K5A6 111635Z AUTO 19003KT 10SM CLR 11/03 A3019 RMK AO2 T01140026
K5A6 111615Z AUTO 19004KT 10SM CLR 10/02 A3018 RMK AO2 T01010023
K5A6 111555Z AUTO 18003KT 10SM CLR 09/02 A3019 RMK AO2 T00870024
K5A6 111535Z AUTO 00000KT 10SM CLR 07/02 A3020 RMK AO2 T00720016
K5A6 111515Z AUTO 00000KT 10SM CLR 06/01 A3020 RMK AO2 T00570011
K5A6 111455Z AUTO 21004KT 10SM CLR 04/01 A3020 RMK AO2 T00440007
K5A6 111435Z AUTO 00000KT 10SM CLR 03/00 A3021 RMK AO2 T00270004
K5A6 111415Z AUTO 00000KT 10SM CLR 01/00 A3020 RMK AO2 T00090000
K5A6 111335Z AUTO 00000KT 10SM CLR M02/M02 A3022 RMK AO2 T10181018
K5A6 111310Z AUTO 00000KT 10SM CLR M03/M03 A3022 RMK AO2 T10271027
K5A6 111255Z AUTO 00000KT 10SM CLR M03/M03 A3022 RMK AO2 T10261026
K5A6 111235Z AUTO 00000KT 10SM CLR M03/M03 A3021 RMK AO2 T10271027
K5A6 111215Z AUTO 00000KT 10SM CLR M03/M03 A3022 RMK AO2 T10271027
K5A6 111135Z AUTO 00000KT 10SM CLR M02/M02 A3021 RMK AO2 T10211023
K5A6 111115Z AUTO 00000KT 10SM CLR M02/M02 A3020 RMK AO2 T10231023
K5A6 111030Z AUTO 00000KT 10SM CLR M02/M02 A3021 RMK AO2 T10211024
K5A6 111015Z AUTO 00000KT 10SM CLR M02/M02 A3020 RMK AO2 T10181021
K5A6 110950Z AUTO 00000KT 10SM CLR M02/M02 A3021 RMK AO2 T10191024
K5A6 110930Z AUTO 00000KT 10SM CLR M02/M02 A3022 RMK AO2 T10171021
K5A6 110910Z AUTO 00000KT 10SM CLR M02/M02 A3023 RMK AO2 T10161021
K5A6 110830Z AUTO 00000KT 10SM CLR M02/M02 A3022 RMK AO2 T10201022
K5A6 110815Z AUTO 00000KT 10SM CLR M02/M02 A3022 RMK AO2 T10161021
K5A6 110750Z AUTO 00000KT 10SM CLR M01/M02 A3022 RMK AO2 T10071016
K5A6 110735Z AUTO 00000KT 10SM CLR M01/M02 A3022 RMK AO2 T10081018
K5A6 110710Z AUTO 00000KT 10SM CLR 00/M02 A3022 RMK AO2 T10011018
K5A6 110655Z AUTO 00000KT 10SM CLR 00/M02 A3023 RMK AO2 T00001020
K5A6 110635Z AUTO 00000KT 10SM CLR 00/M02 A3023 RMK AO2 T00001020
K5A6 110610Z AUTO 00000KT 10SM CLR 00/M02 A3024 RMK AO2 T00031020
K5A6 110555Z AUTO 00000KT 10SM CLR 00/M02 A3024 RMK AO2 T00001016 10065 21005 401201057
K5A6 110535Z AUTO 00000KT 10SM CLR 00/M01 A3024 RMK AO2 T10021015
K5A6 110510Z AUTO 00000KT 10SM CLR 00/M02 A3025 RMK AO2 T00001020
K5A6 110450Z AUTO 00000KT 10SM CLR 00/M01 A3025 RMK AO2 T00001012
K5A6 110435Z AUTO 00000KT 10SM CLR 00/M01 A3025 RMK AO2 T00001015
K5A6 110415Z AUTO 00000KT 10SM CLR 01/M02 A3025 RMK AO2 T00051016